Time;durP1;ratioP1;P1;durP2;ratioP2;P2;SDS_P1;SDS_P2;PMS_P1;PMS_P2;Temp;Humidity;BMP_temperature;BMP_pressure;BME280_temperature;BME280_humidity;BME280_pressure;Samples;Min_cycle;Max_cycle;Signal;HPM_P1;HPM_P2
2022/08/12 00:43:37;;;;;;;12.73;11.37;;;;;;;16.75;100.00;102309.16;5014942;28;20425;-43
2022/08/12 00:48:52;;;;;;;13.93;12.80;;;;;;;16.66;100.00;102312.19;5014438;28;20469;-45
2022/08/12 00:51:20;;;;;;;12.63;11.40;;;;;;;16.61;99.88;102309.28;5014698;28;20488;-47
2022/08/12 00:53:48;;;;;;;12.43;11.43;;;;;;;16.58;100.00;102308.63;5014441;28;20440;-45
2022/08/12 00:56:17;;;;;;;12.63;11.73;;;;;;;16.57;100.00;102311.53;5014691;28;20439;-49
2022/08/12 00:58:49;;;;;;;15.53;14.00;;;;;;;16.54;99.97;102315.44;5013789;28;20989;-49
2022/08/12 01:01:20;;;;;;;13.60;12.60;;;;;;;16.53;100.00;102323.69;5014374;28;20986;-49
2022/08/12 01:12:10;;;;;;;11.30;10.50;;;;;;;16.26;99.52;102319.97;5014166;28;20491;-49
2022/08/12 01:14:40;;;;;;;12.03;11.03;;;;;;;16.18;99.35;102314.75;5014274;28;20437;-48
2022/08/12 01:17:09;;;;;;;11.20;10.40;;;;;;;16.10;99.04;102314.06;5014371;28;20417;-47
2022/08/12 01:19:38;;;;;;;11.63;10.63;;;;;;;16.00;98.61;102314.38;5013869;28;20465;-46
2022/08/12 01:22:29;;;;;;;13.87;12.63;;;;;;;15.90;98.61;102305.81;5014085;28;20795;-47
2022/08/12 01:25:06;;;;;;;16.07;13.13;;;;;;;15.84;98.58;102317.34;5011905;28;20447;-45
2022/08/12 01:27:35;;;;;;;15.23;13.83;;;;;;;15.76;98.76;102312.94;5012838;28;20435;-50
2022/08/12 01:30:07;;;;;;;17.30;15.80;;;;;;;15.73;98.98;102323.25;5014011;28;20475;-47
2022/08/12 01:32:36;;;;;;;15.10;13.80;;;;;;;15.72;99.56;102316.19;5013645;28;20969;-45
2022/08/12 01:35:07;;;;;;;15.00;13.80;;;;;;;15.71;99.81;102312.66;5006180;28;20425;-48
2022/08/12 01:37:42;;;;;;;17.13;15.50;;;;;;;15.73;100.00;102317.84;5005027;28;20919;-49
2022/08/12 01:40:15;;;;;;;16.93;15.43;;;;;;;15.80;100.00;102314.19;5013702;28;20429;-48
2022/08/12 01:43:06;;;;;;;20.60;17.70;;;;;;;15.88;100.00;102310.56;5013787;28;20460;-43
2022/08/12 01:45:36;;;;;;;24.53;22.17;;;;;;;16.00;100.00;102317.06;5013978;28;20441;-50
2022/08/12 01:48:17;;;;;;;24.80;22.27;;;;;;;16.09;100.00;102317.75;5013452;28;20872;-45
2022/08/12 01:50:55;;;;;;;23.50;20.50;;;;;;;16.06;100.00;102308.22;5013791;28;20506;-48
2022/08/12 01:53:35;;;;;;;25.37;23.00;;;;;;;16.07;100.00;102314.44;5013392;28;20512;-46
2022/08/12 01:56:24;;;;;;;23.13;20.73;;;;;;;16.05;100.00;102317.31;5013436;28;20440;-46
2022/08/12 02:01:44;;;;;;;20.33;18.43;;;;;;;15.91;100.00;102311.00;5013322;28;20453;-47
2022/08/12 02:13:22;;;;;;;17.60;15.90;;;;;;;15.75;100.00;102307.72;5012828;28;20441;-48
2022/08/12 02:16:21;;;;;;;16.13;14.80;;;;;;;15.69;100.00;102308.50;5012950;28;20931;-49
2022/08/12 02:18:57;;;;;;;18.50;16.50;;;;;;;15.67;100.00;102306.00;5012712;28;20468;-47
2022/08/12 02:21:37;;;;;;;17.33;15.83;;;;;;;15.68;100.00;102304.97;5012894;28;20449;-48
2022/08/12 02:24:09;;;;;;;16.73;15.20;;;;;;;15.63;100.00;102302.03;5013060;28;20440;-48
2022/08/12 02:26:40;;;;;;;17.23;15.67;;;;;;;15.60;100.00;102293.50;5012901;28;20413;-50
2022/08/12 02:29:09;;;;;;;16.43;14.97;;;;;;;15.56;100.00;102293.06;5012524;28;20484;-46
2022/08/12 02:31:38;;;;;;;17.30;15.70;;;;;;;15.54;100.00;102295.13;5012741;28;20473;-50
2022/08/12 02:34:09;;;;;;;19.20;17.40;;;;;;;15.55;100.00;102294.09;5009590;28;20446;-50
2022/08/12 02:36:39;;;;;;;16.03;14.50;;;;;;;15.53;100.00;102292.63;5001397;28;20488;-46
2022/08/12 02:39:10;;;;;;;18.90;16.90;;;;;;;15.49;100.00;102292.19;4992746;28;20457;-47
2022/08/12 02:41:42;;;;;;;19.37;17.63;;;;;;;15.47;100.00;102280.78;4993060;28;20859;-49
2022/08/12 02:44:15;;;;;;;15.70;14.40;;;;;;;15.42;100.00;102286.69;4993062;28;20812;-48
2022/08/12 02:46:49;;;;;;;25.83;23.30;;;;;;;15.45;100.00;102289.00;4993237;28;20795;-47
2022/08/12 02:49:22;;;;;;;27.60;24.87;;;;;;;15.53;100.00;102293.44;4992673;28;20987;-47
2022/08/12 02:51:50;;;;;;;29.30;26.13;;;;;;;15.61;100.00;102296.03;4992996;28;20489;-47
2022/08/12 02:54:19;;;;;;;27.07;24.37;;;;;;;15.69;100.00;102293.19;4992704;28;20453;-49
2022/08/12 02:56:47;;;;;;;26.23;23.60;;;;;;;15.73;100.00;102294.50;4993120;28;20795;-48
2022/08/12 02:59:21;;;;;;;25.70;23.10;;;;;;;15.75;100.00;102292.44;4992399;28;21093;-50
2022/08/12 03:01:52;;;;;;;33.17;29.27;;;;;;;15.80;100.00;102289.97;4992654;28;20859;-51
2022/08/12 03:04:25;;;;;;;33.57;30.20;;;;;;;15.85;100.00;102292.09;4992860;28;20548;-50
2022/08/12 03:07:01;;;;;;;30.67;27.50;;;;;;;15.87;100.00;102293.56;4992677;28;20824;-47
2022/08/12 03:09:33;;;;;;;37.40;33.70;;;;;;;15.89;100.00;102286.13;4992220;28;20477;-47
2022/08/12 03:12:23;;;;;;;35.43;31.80;;;;;;;15.92;100.00;102292.97;4992323;28;20474;-48
2022/08/12 03:14:54;;;;;;;32.97;29.57;;;;;;;15.93;100.00;102284.72;4993611;28;20442;-48
2022/08/12 03:17:29;;;;;;;36.40;32.60;;;;;;;15.96;100.00;102276.25;4992673;28;20437;-47
2022/08/12 03:19:59;;;;;;;37.27;32.87;;;;;;;16.01;100.00;102276.50;4991930;28;20441;-51
2022/08/12 03:22:39;;;;;;;35.23;31.50;;;;;;;16.02;100.00;102274.66;4991052;28;20450;-46
2022/08/12 03:25:15;;;;;;;38.53;34.17;;;;;;;16.04;100.00;102276.13;4991217;28;20540;-50
2022/08/12 03:27:48;;;;;;;40.57;36.40;;;;;;;16.08;100.00;102275.72;4992008;28;20440;-46
2022/08/12 03:30:19;;;;;;;41.27;36.90;;;;;;;16.11;100.00;102270.78;4991113;28;20814;-45
2022/08/12 03:32:49;;;;;;;40.40;36.10;;;;;;;16.15;100.00;102277.47;4992377;28;20499;-51
2022/08/12 03:35:25;;;;;;;38.97;34.80;;;;;;;16.18;100.00;102278.91;4990090;28;20519;-47
2022/08/12 03:38:10;;;;;;;45.23;39.00;;;;;;;16.24;100.00;102275.44;4996497;28;21004;-45
2022/08/12 04:00:25;;;;;;;41.13;34.07;;;;;;;16.45;100.00;102270.00;5011439;28;20429;-48
2022/08/12 04:02:57;;;;;;;41.17;36.90;;;;;;;16.44;100.00;102266.47;5012096;28;20776;-50
2022/08/12 04:05:26;;;;;;;40.93;36.53;;;;;;;16.44;100.00;102261.06;5011845;28;20487;-48
2022/08/12 04:08:13;;;;;;;40.70;35.57;;;;;;;16.46;100.00;102266.25;5011169;28;20669;-49
2022/08/12 04:13:24;;;;;;;35.47;31.93;;;;;;;16.48;100.00;102258.81;5011145;28;20433;-45
2022/08/12 04:15:52;;;;;;;39.30;35.50;;;;;;;16.50;100.00;102259.44;5011505;28;20440;-49
2022/08/12 04:18:22;;;;;;;38.23;34.10;;;;;;;16.53;100.00;102259.03;5010853;28;20457;-49
2022/08/12 04:20:51;;;;;;;35.50;31.70;;;;;;;16.57;100.00;102271.13;5011563;28;20463;-49
2022/08/12 04:23:20;;;;;;;35.70;32.10;;;;;;;16.60;100.00;102265.34;5011567;28;20456;-49
2022/08/12 04:25:48;;;;;;;33.07;29.80;;;;;;;16.64;100.00;102271.97;5011664;28;20440;-49
2022/08/12 04:28:16;;;;;;;32.20;28.87;;;;;;;16.69;100.00;102264.16;5011046;28;20483;-47
2022/08/12 04:30:43;;;;;;;35.60;32.00;;;;;;;16.76;100.00;102270.38;5011343;28;20457;-49
2022/08/12 04:33:12;;;;;;;28.07;25.40;;;;;;;16.80;100.00;102265.44;5013273;28;20483;-47
2022/08/12 04:35:41;;;;;;;34.93;31.40;;;;;;;16.88;100.00;102263.38;5007486;28;20484;-50
2022/08/12 04:38:09;;;;;;;36.00;32.30;;;;;;;16.95;100.00;102258.03;5007222;28;20461;-50
2022/08/12 04:40:37;;;;;;;32.80;29.40;;;;;;;17.01;100.00;102258.06;5015099;28;20433;-46
2022/08/12 04:43:05;;;;;;;33.50;30.30;;;;;;;17.14;100.00;102259.97;5014709;28;20436;-47
2022/08/12 04:45:53;;;;;;;36.50;32.63;;;;;;;17.28;100.00;102263.53;5015059;28;20560;-49
2022/08/12 04:48:21;;;;;;;34.63;29.37;;;;;;;17.32;100.00;102264.78;5014501;28;20471;-49
2022/08/12 04:50:50;;;;;;;33.60;30.43;;;;;;;17.36;100.00;102268.72;5014595;28;20528;-48
2022/08/12 04:53:18;;;;;;;44.47;35.97;;;;;;;17.41;100.00;102260.88;5014361;28;20989;-48
2022/08/12 04:55:47;;;;;;;47.60;35.73;;;;;;;17.49;100.00;102263.38;5014866;28;20444;-45
2022/08/12 04:58:14;;;;;;;54.00;36.50;;;;;;;17.58;100.00;102270.25;5014331;28;20469;-49
2022/08/12 05:00:56;;;;;;;36.40;32.50;;;;;;;17.75;100.00;102270.66;5014479;28;20468;-48
2022/08/12 05:03:25;;;;;;;37.27;33.27;;;;;;;17.92;100.00;102269.25;5014564;28;20433;-47
2022/08/12 05:05:55;;;;;;;32.20;29.00;;;;;;;18.37;100.00;102268.34;5014429;28;20810;-45
2022/08/12 05:08:24;;;;;;;29.97;27.10;;;;;;;19.04;95.85;102272.53;5013756;28;20472;-45
2022/08/12 05:10:52;;;;;;;28.80;26.33;;;;;;;20.00;100.00;102268.56;5014390;28;20453;-46
2022/08/12 05:13:22;;;;;;;22.33;20.73;;;;;;;21.19;97.27;102259.97;5014363;28;20472;-47
2022/08/12 05:15:50;;;;;;;18.50;17.10;;;;;;;22.06;100.00;102261.94;5014175;28;20452;-47
2022/08/12 05:18:32;;;;;;;17.50;16.03;;;;;;;23.22;100.00;102263.63;5014000;28;20469;-52
2022/08/12 05:21:03;;;;;;;15.97;14.90;;;;;;;24.22;98.42;102264.56;5014246;28;20456;-52
2022/08/12 05:23:30;;;;;;;15.27;14.10;;;;;;;24.96;83.71;102270.47;5014149;28;20433;-47
2022/08/12 05:25:59;;;;;;;14.53;13.60;;;;;;;25.78;84.74;102260.94;5014188;28;20436;-48
2022/08/12 05:28:29;;;;;;;13.13;12.30;;;;;;;26.68;81.60;102268.06;5013678;28;20475;-52
2022/08/12 05:31:00;;;;;;;13.00;12.30;;;;;;;27.22;70.85;102265.00;5013858;28;20846;-48
2022/08/12 05:33:31;;;;;;;12.30;11.50;;;;;;;28.06;71.50;102272.75;5013595;28;20504;-50
2022/08/12 05:35:59;;;;;;;11.90;11.10;;;;;;;28.36;62.46;102269.94;4998437;28;20799;-49
2022/08/12 05:41:19;;;;;;;9.83;9.23;;;;;;;29.17;60.62;102278.69;5008064;28;20471;-50
2022/08/12 05:43:48;;;;;;;10.23;9.63;;;;;;;29.53;57.40;102282.88;5012609;28;20437;-51
2022/08/12 05:46:18;;;;;;;9.93;9.33;;;;;;;29.86;57.44;102275.75;5013984;28;20494;-50
2022/08/12 05:48:46;;;;;;;10.03;9.43;;;;;;;30.05;53.72;102278.56;5013353;28;20467;-49
2022/08/12 05:51:14;;;;;;;9.47;8.80;;;;;;;30.17;53.95;102273.50;5013634;28;20224;-54
2022/08/12 05:53:43;;;;;;;10.30;9.50;;;;;;;30.13;51.42;102278.78;5013504;28;20230;-50
2022/08/12 05:56:22;;;;;;;9.60;9.00;;;;;;;30.37;52.52;102276.06;5013845;28;20227;-51
2022/08/12 05:58:51;;;;;;;8.90;8.40;;;;;;;30.51;51.03;102278.94;5013362;28;20340;-53
2022/08/12 06:01:20;;;;;;;8.90;8.50;;;;;;;30.50;48.77;102280.88;5013750;28;20232;-48
2022/08/12 06:04:08;;;;;;;8.87;8.37;;;;;;;30.45;49.19;102267.19;5013375;28;20205;-50
2022/08/12 06:06:40;;;;;;;7.67;7.27;;;;;;;30.75;50.47;102281.69;5013164;28;20548;-52
2022/08/12 06:09:10;;;;;;;8.63;8.13;;;;;;;30.95;49.06;102282.25;5012952;28;20228;-50
2022/08/12 06:11:40;;;;;;;8.87;8.37;;;;;;;30.94;49.44;102275.13;5013275;28;20217;-48
2022/08/12 06:14:27;;;;;;;8.00;7.60;;;;;;;31.13;47.33;102275.94;5013089;28;20695;-48
2022/08/12 06:16:56;;;;;;;8.70;8.00;;;;;;;31.38;44.41;102276.69;5013279;28;20391;-49
2022/08/12 06:19:26;;;;;;;7.53;6.88;;;;;;;31.33;46.90;102277.59;5012654;28;20229;-45
2022/08/12 06:22:14;;;;;;;7.43;6.93;;;;;;;31.48;47.64;102274.59;5012977;28;20225;-49
2022/08/12 06:24:43;;;;;;;7.40;7.10;;;;;;;31.35;43.36;102278.09;5013110;28;20587;-43
2022/08/12 06:27:17;;;;;;;7.40;6.80;;;;;;;31.37;45.75;102275.03;5013184;28;20197;-48
2022/08/12 06:29:45;;;;;;;6.10;5.70;;;;;;;31.70;45.83;102269.28;5012428;28;20582;-47
2022/08/12 06:32:32;;;;;;;6.47;6.07;;;;;;;31.43;47.07;102282.94;5012560;28;20218;-52
2022/08/12 06:35:02;;;;;;;6.43;5.97;;;;;;;31.67;46.44;102278.16;5005363;28;20194;-49
2022/08/12 06:37:54;;;;;;;7.22;6.70;;;;;;;31.71;43.35;102272.88;5004055;28;20227;-47
2022/08/12 06:43:09;;;;;;;6.50;6.18;;;;;;;31.65;42.28;102271.31;5001366;28;20201;-43
2022/08/12 06:45:43;;;;;;;6.95;6.45;;;;;;;31.92;45.76;102267.81;5012441;28;20204;-43
2022/08/12 06:48:13;;;;;;;6.90;6.50;;;;;;;31.83;42.17;102273.22;5012119;28;20221;-48
2022/08/12 06:50:41;;;;;;;7.13;6.57;;;;;;;31.35;44.25;102266.25;5012306;28;20218;-45
2022/08/12 06:53:09;;;;;;;5.43;5.03;;;;;;;31.88;45.58;102264.00;5012206;28;20229;-48
2022/08/12 06:55:41;;;;;;;4.93;4.60;;;;;;;31.68;44.51;102266.03;5012256;28;20284;-50
2022/08/12 06:58:25;;;;;;;5.00;4.53;;;;;;;31.66;42.80;102268.22;5011994;28;20235;-49
2022/08/12 07:00:54;;;;;;;4.57;4.28;;;;;;;31.27;43.39;102265.00;5012679;28;20597;-48
2022/08/12 07:03:27;;;;;;;5.22;3.60;;;;;;;31.87;45.52;102262.38;5012148;28;20244;-46
2022/08/12 07:05:57;;;;;;;4.05;3.85;;;;;;;31.87;43.10;102265.94;5012312;28;20201;-48
2022/08/12 07:08:28;;;;;;;4.32;4.13;;;;;;;31.94;43.81;102266.38;5011885;28;20230;-52
2022/08/12 07:10:59;;;;;;;4.15;3.88;;;;;;;31.74;42.72;102262.06;5012188;28;20313;-50
2022/08/12 07:13:29;;;;;;;3.85;3.65;;;;;;;31.46;44.51;102259.44;5012045;28;20584;-48
2022/08/12 07:15:57;;;;;;;3.70;3.50;;;;;;;31.53;43.74;102260.75;5012504;28;20308;-47
2022/08/12 07:18:31;;;;;;;7.40;4.10;;;;;;;31.43;42.91;102266.38;5011665;28;20245;-45
2022/08/12 07:21:02;;;;;;;8.37;4.67;;;;;;;31.50;43.64;102260.53;5012092;28;20222;-46
2022/08/12 07:23:32;;;;;;;3.97;3.78;;;;;;;31.32;45.05;102275.13;5011972;28;20204;-52
2022/08/12 07:26:02;;;;;;;4.32;4.03;;;;;;;30.89;45.19;102269.63;5011917;28;20206;-48
2022/08/12 07:28:33;;;;;;;4.70;3.77;;;;;;;30.75;43.96;102276.16;5011788;28;20312;-46
2022/08/12 07:31:03;;;;;;;5.30;4.20;;;;;;;30.78;44.15;102272.81;5011923;28;20213;-49
2022/08/12 07:33:31;;;;;;;4.47;4.37;;;;;;;30.38;45.50;102276.84;5011963;28;20221;-47
2022/08/12 07:36:02;;;;;;;4.70;4.40;;;;;;;30.17;45.14;102279.00;5001487;28;20202;-43
2022/08/12 07:38:32;;;;;;;4.93;4.53;;;;;;;30.23;44.57;102277.84;5007006;28;20233;-47
2022/08/12 07:41:05;;;;;;;5.60;5.13;;;;;;;30.07;44.38;102274.44;5012049;28;20285;-48
2022/08/12 07:43:35;;;;;;;4.53;4.30;;;;;;;29.52;43.66;102272.13;5011781;28;20216;-45
2022/08/12 07:46:09;;;;;;;4.43;4.13;;;;;;;29.08;45.75;102277.63;5011904;28;20294;-44
2022/08/12 07:48:40;;;;;;;4.40;4.20;;;;;;;28.92;45.49;102293.38;5011558;28;20228;-46
2022/08/12 07:51:08;;;;;;;5.20;4.10;;;;;;;28.53;46.51;102289.66;5011768;28;20223;-47
2022/08/12 07:53:37;;;;;;;5.40;5.00;;;;;;;27.99;48.28;102289.44;5011570;28;20217;-46
2022/08/12 07:56:26;;;;;;;4.17;4.00;;;;;;;27.54;48.31;102289.47;5011767;28;20430;-48
2022/08/12 07:58:57;;;;;;;4.73;4.40;;;;;;;27.45;48.43;102286.41;5011348;28;20465;-47
2022/08/12 08:01:25;;;;;;;4.00;3.90;;;;;;;27.13;46.35;102285.78;5011520;28;20992;-49
2022/08/12 08:06:45;;;;;;;5.40;3.87;;;;;;;26.67;47.04;102285.56;5011707;28;20433;-49
2022/08/12 08:09:15;;;;;;;3.70;3.50;;;;;;;26.50;47.10;102287.69;5014925;28;20461;-48
2022/08/12 08:14:31;;;;;;;3.90;3.60;;;;;;;26.75;48.25;102293.28;5015449;28;20472;-47
2022/08/12 08:17:02;;;;;;;4.37;4.07;;;;;;;26.83;47.49;102291.97;5015260;28;21128;-47
2022/08/12 08:19:32;;;;;;;3.70;3.43;;;;;;;27.07;47.17;102284.13;5014763;28;20468;-45
2022/08/12 08:22:20;;;;;;;4.43;4.10;;;;;;;27.36;45.60;102286.09;5015235;28;20810;-47
2022/08/12 08:25:08;;;;;;;4.27;3.87;;;;;;;27.41;43.15;102288.03;5015332;28;20444;-47
2022/08/12 08:28:01;;;;;;;4.03;3.30;;;;;;;27.35;42.99;102300.09;5014982;28;20464;-47
2022/08/12 08:30:30;;;;;;;2.90;2.80;;;;;;;27.20;40.79;102291.84;5014960;28;20431;-45
2022/08/12 08:32:58;;;;;;;3.37;3.27;;;;;;;27.07;42.43;102284.94;5015192;28;20441;-47
2022/08/12 08:35:27;;;;;;;4.30;3.80;;;;;;;26.96;42.81;102291.50;5007255;28;20472;-45
2022/08/12 08:38:15;;;;;;;4.60;4.13;;;;;;;26.80;44.02;102289.78;5000664;28;20470;-43
2022/08/12 08:44:06;;;;;;;3.83;3.73;;;;;;;26.61;45.06;102294.84;5014984;28;20428;-47
2022/08/12 08:46:36;;;;;;;3.70;3.50;;;;;;;26.47;45.32;102296.41;5014909;28;20439;-43
2022/08/12 08:49:04;;;;;;;3.70;3.50;;;;;;;26.68;45.21;102302.81;5014140;28;20973;-45
2022/08/12 08:51:32;;;;;;;4.27;3.87;;;;;;;26.72;48.02;102290.25;5014863;28;20539;-44
2022/08/12 08:54:00;;;;;;;4.40;3.57;;;;;;;26.69;45.94;102297.09;5014372;28;20974;-45
2022/08/12 08:56:28;;;;;;;4.10;3.90;;;;;;;26.55;46.68;102297.84;5014451;28;20437;-52
2022/08/12 08:58:56;;;;;;;3.90;3.70;;;;;;;26.33;47.63;102293.34;5014046;28;20478;-45
2022/08/12 09:01:26;;;;;;;3.73;3.63;;;;;;;26.29;47.68;102291.38;5014536;28;20552;-50
2022/08/12 09:04:07;;;;;;;3.63;3.50;;;;;;;26.36;47.89;102292.00;5014545;28;20786;-49
2022/08/12 09:06:55;;;;;;;3.90;3.60;;;;;;;26.36;47.27;102298.28;5014593;28;20433;-48
2022/08/12 09:09:23;;;;;;;3.67;3.57;;;;;;;26.45;47.25;102298.59;5013997;28;20547;-47
2022/08/12 09:14:54;;;;;;;7.43;3.53;;;;;;;26.82;43.99;102295.81;5014394;28;20473;-47
2022/08/12 09:17:25;;;;;;;3.87;3.53;;;;;;;26.78;43.54;102303.72;5014294;28;20858;-43
2022/08/12 09:20:09;;;;;;;3.53;3.23;;;;;;;26.82;44.81;102299.34;5013863;28;20531;-47
2022/08/12 09:22:43;;;;;;;3.60;3.50;;;;;;;27.03;46.09;102296.72;5013752;28;20480;-47
2022/08/12 09:25:17;;;;;;;6.63;3.17;;;;;;;27.25;44.19;102292.66;5014289;28;20794;-43
2022/08/12 09:27:52;;;;;;;3.30;3.10;;;;;;;27.19;42.84;102288.28;5013548;28;20467;-44
2022/08/12 09:30:32;;;;;;;3.57;3.37;;;;;;;27.36;41.47;102290.75;5013941;28;20439;-45
2022/08/12 09:33:11;;;;;;;3.10;2.90;;;;;;;27.31;41.12;102291.59;5013690;28;20440;-47
2022/08/12 09:35:59;;;;;;;4.63;3.23;;;;;;;27.20;40.58;102281.72;5003415;28;21006;-49
2022/08/12 09:38:32;;;;;;;3.20;3.00;;;;;;;27.25;38.08;102281.72;5009099;28;20479;-48
2022/08/12 09:41:02;;;;;;;3.83;3.57;;;;;;;27.16;41.34;102280.59;5013678;28;20449;-45
2022/08/12 09:46:56;;;;;;;3.20;3.00;;;;;;;26.89;41.03;102290.91;5013679;28;20938;-46
2022/08/12 09:49:25;;;;;;;3.53;3.33;;;;;;;27.04;40.56;102281.91;5013298;28;20815;-46
2022/08/12 09:51:53;;;;;;;3.13;2.93;;;;;;;26.96;39.97;102279.72;5013804;28;20452;-46
2022/08/12 09:54:24;;;;;;;3.63;3.43;;;;;;;27.05;41.42;102272.63;5013512;28;20504;-48
2022/08/12 09:57:06;;;;;;;3.83;3.60;;;;;;;27.10;41.70;102269.88;5013613;28;20491;-46
2022/08/12 09:59:55;;;;;;;4.30;3.70;;;;;;;26.88;42.65;102261.91;5013281;28;20816;-48
2022/08/12 10:02:59;;;;;;;5.40;3.83;;;;;;;26.90;42.75;102257.81;5013167;28;20873;-48
2022/08/12 10:05:32;;;;;;;4.10;3.90;;;;;;;26.89;42.07;102261.63;5013325;28;20474;-50
2022/08/12 10:08:20;;;;;;;4.50;4.10;;;;;;;26.82;43.36;102250.09;5013047;28;20468;-49
2022/08/12 10:13:42;;;;;;;4.43;4.23;;;;;;;27.09;42.24;102243.63;4969896;28;20620;-45
2022/08/12 10:16:13;;;;;;;4.00;3.70;;;;;;;27.25;41.85;102250.75;5013145;28;20530;-50
2022/08/12 10:18:52;;;;;;;4.57;4.27;;;;;;;27.35;40.74;102248.03;5012548;28;20518;-48
2022/08/12 10:21:23;;;;;;;3.87;3.57;;;;;;;27.51;38.50;102236.00;5013209;28;20519;-48
2022/08/12 10:24:04;;;;;;;4.10;3.80;;;;;;;27.54;39.75;102237.41;5012941;28;20444;-51
2022/08/12 10:29:38;;;;;;;3.90;3.60;;;;;;;27.36;42.42;102227.75;5012358;28;20453;-49
2022/08/12 10:32:25;;;;;;;5.33;4.07;;;;;;;27.35;41.53;102228.88;5013137;28;20802;-46
2022/08/12 10:35:14;;;;;;;4.33;3.97;;;;;;;27.29;41.17;102238.16;5005037;28;20534;-46
2022/08/12 10:37:44;;;;;;;4.20;3.80;;;;;;;27.35;42.93;102220.66;5003983;28;20443;-44
2022/08/12 10:40:32;;;;;;;4.23;3.33;;;;;;;27.45;41.15;102224.22;5012984;28;20443;-48
2022/08/12 10:45:55;;;;;;;3.70;3.50;;;;;;;27.74;40.69;102213.56;5012508;28;21032;-50
2022/08/12 10:48:27;;;;;;;5.40;3.30;;;;;;;28.01;37.39;102205.00;5012265;28;20530;-45
2022/08/12 10:51:02;;;;;;;3.00;2.80;;;;;;;28.22;36.69;102198.41;5012801;28;20598;-46
2022/08/12 10:53:54;;;;;;;4.53;3.70;;;;;;;28.26;36.72;102199.47;5012412;28;20443;-45
2022/08/12 10:56:31;;;;;;;3.40;3.20;;;;;;;28.36;35.85;102199.44;5012638;28;20507;-46
2022/08/12 10:59:02;;;;;;;3.70;3.50;;;;;;;28.52;35.47;102198.25;5011973;28;20495;-46
2022/08/12 11:01:30;;;;;;;4.00;3.70;;;;;;;28.48;36.63;102190.88;5012390;28;20502;-45
2022/08/12 11:04:18;;;;;;;4.40;4.10;;;;;;;28.31;37.82;102193.16;5012391;28;20770;-45
2022/08/12 11:07:05;;;;;;;4.60;3.30;;;;;;;28.38;38.00;102188.16;5012111;28;20434;-49
2022/08/12 11:09:57;;;;;;;4.13;3.83;;;;;;;28.31;38.61;102191.22;5012005;28;20459;-43
2022/08/12 11:12:30;;;;;;;3.77;3.47;;;;;;;28.18;40.89;102177.28;5012175;28;20455;-46
2022/08/12 11:15:22;;;;;;;4.70;4.30;;;;;;;28.18;39.99;102193.72;5012323;28;20473;-48
2022/08/12 11:18:09;;;;;;;4.33;3.43;;;;;;;28.11;39.25;102183.06;5011759;28;20471;-50
2022/08/12 11:20:46;;;;;;;3.53;3.23;;;;;;;28.16;40.35;102193.19;5012111;28;20459;-44
2022/08/12 11:23:14;;;;;;;4.90;3.87;;;;;;;27.97;40.13;102187.44;5011792;28;20437;-49
2022/08/12 11:26:03;;;;;;;4.50;3.33;;;;;;;27.95;40.14;102197.88;5012170;28;20429;-44
2022/08/12 11:28:33;;;;;;;3.70;3.40;;;;;;;27.96;39.31;102188.53;5011494;28;21015;-45
2022/08/12 11:31:06;;;;;;;3.73;3.53;;;;;;;27.82;41.81;102180.09;5011869;28;21051;-46
2022/08/12 11:33:39;;;;;;;3.50;3.30;;;;;;;27.95;40.98;102176.78;5011827;28;20439;-49
2022/08/12 11:36:26;;;;;;;3.63;3.43;;;;;;;28.11;41.60;102171.25;4995146;28;20468;-48
2022/08/12 11:38:55;;;;;;;4.00;3.80;;;;;;;28.14;41.70;102177.00;5010130;28;20464;-47
2022/08/12 11:41:25;;;;;;;3.93;3.73;;;;;;;28.25;41.05;102170.41;5012784;28;20456;-48
2022/08/12 11:43:59;;;;;;;3.70;3.60;;;;;;;28.26;41.36;102179.44;5015714;28;20472;-44
2022/08/12 11:46:47;;;;;;;6.40;3.70;;;;;;;28.35;41.56;102175.84;5015753;28;20443;-46
2022/08/12 11:49:17;;;;;;;4.47;3.53;;;;;;;28.33;41.49;102171.72;5015608;28;20472;-43
2022/08/12 11:52:00;;;;;;;3.50;3.40;;;;;;;28.54;41.30;102165.88;5015803;28;20544;-45
2022/08/12 11:54:27;;;;;;;3.90;3.70;;;;;;;28.48;40.79;102174.41;5015844;28;20437;-45
2022/08/12 11:56:58;;;;;;;4.37;4.07;;;;;;;28.53;41.36;102171.63;5015923;28;20504;-46
2022/08/12 11:59:27;;;;;;;4.30;4.00;;;;;;;28.53;41.27;102164.22;5015439;28;20464;-44
2022/08/12 12:02:14;;;;;;;4.77;4.37;;;;;;;28.48;40.82;102163.44;5015086;28;20456;-47
2022/08/12 12:04:48;;;;;;;3.13;3.00;;;;;;;28.62;41.72;102166.38;5015560;28;20443;-48
2022/08/12 12:07:21;;;;;;;4.80;3.80;;;;;;;28.70;41.49;102161.16;5015532;28;20417;-50
2022/08/12 12:09:48;;;;;;;4.03;3.73;;;;;;;28.54;41.42;102157.63;5015214;28;20534;-49
2022/08/12 12:12:22;;;;;;;5.33;3.80;;;;;;;28.58;40.94;102154.34;5015589;28;20448;-46
2022/08/12 12:14:51;;;;;;;4.17;3.80;;;;;;;28.49;40.57;102152.16;5015758;28;20471;-49
2022/08/12 12:17:21;;;;;;;4.33;4.00;;;;;;;28.55;41.64;102145.53;5014578;22;20827;-42
2022/08/12 12:19:49;;;;;;;4.10;3.73;;;;;;;28.59;41.81;102156.78;4995146;28;20462;-42
2022/08/12 12:22:16;;;;;;;4.03;3.83;;;;;;;28.49;41.37;102154.91;4995473;28;20911;-42
2022/08/12 12:24:53;;;;;;;3.30;3.10;;;;;;;28.45;40.32;102158.50;4995795;28;20464;-45
2022/08/12 12:27:22;;;;;;;3.53;3.30;;;;;;;28.45;41.03;102166.75;4995821;28;20868;-42
2022/08/12 12:30:10;;;;;;;3.70;3.50;;;;;;;28.42;40.78;102150.84;4995392;28;20990;-44
2022/08/12 12:32:53;;;;;;;4.30;4.03;;;;;;;28.35;40.86;102145.66;4995532;28;20919;-44
2022/08/12 12:35:21;;;;;;;3.77;3.57;;;;;;;28.33;40.60;102158.84;4992349;28;20523;-42
2022/08/12 12:38:10;;;;;;;3.60;3.40;;;;;;;28.48;40.05;102142.31;4999398;28;20465;-44
2022/08/12 12:40:41;;;;;;;3.87;3.57;;;;;;;28.53;40.47;102141.44;5014908;28;20798;-42
2022/08/12 12:43:12;;;;;;;3.53;3.30;;;;;;;28.58;40.63;102136.75;5014739;28;21007;-43
2022/08/12 12:45:42;;;;;;;5.87;3.40;;;;;;;28.59;40.70;102137.56;5014920;28;20443;-43
2022/08/12 12:48:14;;;;;;;3.70;3.50;;;;;;;28.63;40.49;102140.56;5014024;28;20457;-42
2022/08/12 12:50:43;;;;;;;3.67;3.47;;;;;;;28.57;41.78;102131.53;5014697;28;20523;-42
2022/08/12 12:53:21;;;;;;;3.87;3.53;;;;;;;28.47;41.01;102123.34;5014081;28;20525;-44
2022/08/12 12:56:14;;;;;;;4.23;3.93;;;;;;;28.58;41.09;102138.69;5014664;28;20479;-42
2022/08/12 12:58:43;;;;;;;4.00;3.70;;;;;;;28.61;41.06;102127.16;5014371;28;20468;-44
2022/08/12 13:01:12;;;;;;;5.80;3.40;;;;;;;28.43;41.40;102120.34;5014425;28;20437;-42
2022/08/12 13:03:58;;;;;;;3.70;3.40;;;;;;;28.60;40.99;102136.47;5013950;28;20495;-42
2022/08/12 13:06:30;;;;;;;3.53;3.30;;;;;;;28.57;41.72;102126.06;5014475;28;20448;-42
2022/08/12 13:09:00;;;;;;;3.53;3.33;;;;;;;28.50;41.27;102133.78;5014025;28;20460;-41
2022/08/12 13:11:30;;;;;;;3.50;3.30;;;;;;;28.50;40.26;102120.88;5014437;28;20833;-43
2022/08/12 13:14:11;;;;;;;3.60;3.40;;;;;;;28.54;39.74;102127.44;5014295;28;20930;-42
2022/08/12 13:16:56;;;;;;;3.67;3.40;;;;;;;28.50;39.22;102123.63;5013681;28;20484;-41
2022/08/12 13:19:25;;;;;;;3.80;3.60;;;;;;;28.48;40.35;102119.53;5013785;28;20838;-42
2022/08/12 13:22:18;;;;;;;3.80;3.60;;;;;;;28.60;40.83;102113.69;5013636;28;20429;-46
2022/08/12 13:24:49;;;;;;;5.13;3.73;;;;;;;28.65;39.56;102109.00;5014200;28;20482;-42
2022/08/12 13:27:25;;;;;;;3.87;3.67;;;;;;;28.61;40.54;102116.16;5014200;28;20456;-43
2022/08/12 13:29:57;;;;;;;3.93;3.73;;;;;;;28.66;40.17;102110.66;5013950;28;20467;-43
2022/08/12 13:32:30;;;;;;;3.50;3.20;;;;;;;28.64;39.92;102112.03;5013350;28;20852;-42
2022/08/12 13:35:01;;;;;;;4.63;4.33;;;;;;;28.66;40.17;102121.66;5006662;28;20804;-42
2022/08/12 13:37:53;;;;;;;6.07;3.80;;;;;;;28.60;40.01;102108.19;5005092;28;20484;-42
2022/08/12 13:40:23;;;;;;;3.90;3.50;;;;;;;28.67;39.30;102103.25;5013806;28;20435;-47
2022/08/12 13:42:56;;;;;;;3.30;3.20;;;;;;;28.60;39.04;102109.03;5013452;28;20949;-44
2022/08/12 13:45:26;;;;;;;3.67;3.33;;;;;;;28.65;38.77;102116.41;5013778;28;20433;-45